Time;durP1;ratioP1;P1;durP2;ratioP2;P2;SDS_P1;SDS_P2;PMS_P1;PMS_P2;Temp;Humidity;BMP_temperature;BMP_pressure;BME280_temperature;BME280_humidity;BME280_pressure;Samples;Min_cycle;Max_cycle;Signal;HPM_P1;HPM_P2
2021/12/15 00:02:21;;;;;;;;;75.00;63.00;;;;;9.38;56.26;99835.75;6227929;28;96666;-65
2021/12/15 00:05:27;;;;;;;;;82.20;62.20;;;;;9.34;56.20;99828.25;6196414;28;99477;-65
2021/12/15 00:08:32;;;;;;;;;81.00;65.40;;;;;9.38;56.33;99829.56;6229103;28;97211;-64
2021/12/15 00:11:37;;;;;;;;;79.00;62.40;;;;;9.38;56.36;99830.38;6237249;28;98251;-64
2021/12/15 00:14:41;;;;;;;;;80.40;63.40;;;;;9.31;56.46;99818.72;6211803;28;96857;-66
2021/12/15 00:17:48;;;;;;;;;79.00;61.40;;;;;9.43;56.06;99821.75;6213326;28;97490;-65
2021/12/15 00:20:52;;;;;;;;;79.00;62.60;;;;;9.39;56.06;99820.44;6226712;28;97760;-66
2021/12/15 00:23:57;;;;;;;;;77.00;61.50;;;;;9.35;56.40;99821.88;6226639;27;98215;-66
2021/12/15 00:27:00;;;;;;;;;76.00;62.00;;;;;9.36;56.35;99826.22;6274884;27;97396;-66
2021/12/15 00:30:06;;;;;;;;;82.40;69.20;;;;;9.41;56.24;99821.09;6273793;27;97096;-66
2021/12/15 00:33:10;;;;;;;;;78.00;64.40;;;;;9.42;56.18;99826.31;6230233;27;97194;-66
2021/12/15 00:36:14;;;;;;;;;78.40;65.40;;;;;9.45;56.07;99830.47;6238238;27;96808;-65
2021/12/15 00:39:21;;;;;;;;;79.00;67.40;;;;;9.33;56.28;99840.06;6274394;27;96944;-66
2021/12/15 00:42:25;;;;;;;;;85.00;67.40;;;;;9.26;56.35;99841.84;6240967;27;98482;-65
2021/12/15 00:45:29;;;;;;;;;85.50;68.50;;;;;9.33;56.36;99853.53;6256663;27;96537;-66
2021/12/15 00:48:33;;;;;;;;;86.00;69.00;;;;;9.13;56.25;99819.16;6214789;28;97129;-65
2021/12/15 00:51:37;;;;;;;;;86.25;70.00;;;;;9.39;56.13;99847.38;6213529;27;96940;-66
2021/12/15 00:54:42;;;;;;;;;88.80;72.20;;;;;9.40;56.20;99865.19;6231384;27;97895;-67
2021/12/15 00:57:46;;;;;;;;;91.25;69.50;;;;;9.43;55.93;99844.09;6237447;28;96365;-66
2021/12/15 01:00:55;;;;;;;;;95.00;72.60;;;;;9.45;55.85;99847.44;6226262;27;99004;-66
2021/12/15 01:03:59;;;;;;;;;88.20;71.00;;;;;9.36;56.01;99858.53;6225187;28;97426;-67
2021/12/15 01:07:07;;;;;;;;;87.00;71.60;;;;;9.37;55.98;99854.81;6238069;28;97366;-66
2021/12/15 01:10:17;;;;;;;;;87.00;72.00;;;;;9.38;56.22;99851.91;6273328;27;97102;-67
2021/12/15 01:20:12;;;;;;;;;94.25;73.75;;;;;9.29;56.59;99846.84;6231259;28;97259;-68
2021/12/15 01:23:20;;;;;;;;;89.00;71.00;;;;;9.30;56.54;99859.28;6205395;27;96983;-67
2021/12/15 01:26:25;;;;;;;;;87.80;70.00;;;;;9.34;56.38;99849.78;6213191;28;97239;-66
2021/12/15 01:29:29;;;;;;;;;86.80;71.40;;;;;9.31;56.37;99834.88;6221605;28;97131;-67
2021/12/15 01:32:32;;;;;;;;;89.00;69.00;;;;;9.33;56.59;99829.31;6220498;27;97907;-67
2021/12/15 01:35:38;;;;;;;;;85.00;68.50;;;;;9.36;56.26;99835.13;6213318;28;96954;-66
2021/12/15 01:38:44;;;;;;;;;81.25;63.25;;;;;9.36;56.62;99851.28;6211093;28;97841;-67
2021/12/15 01:41:49;;;;;;;;;79.00;66.60;;;;;9.41;56.67;99843.47;6205413;28;97476;-67
2021/12/15 01:48:16;;;;;;;;;85.00;67.75;;;;;9.31;56.98;99853.72;6240455;28;98143;-66
2021/12/15 01:51:20;;;;;;;;;84.00;63.50;;;;;9.32;57.07;99851.84;6232625;28;97157;-68
2021/12/15 01:54:26;;;;;;;;;82.00;66.00;;;;;9.30;57.30;99846.66;6210475;28;98143;-67
2021/12/15 01:57:35;;;;;;;;;77.60;61.80;;;;;9.37;57.10;99831.44;6229226;28;97435;-67
2021/12/15 02:00:43;;;;;;;;;78.40;60.60;;;;;9.44;56.91;99834.16;6214807;28;97101;-65
2021/12/15 02:03:47;;;;;;;;;80.00;64.00;;;;;9.38;57.01;99833.06;6226961;28;97535;-66
2021/12/15 02:07:14;;;;;;;;;77.00;57.00;;;;;9.45;57.07;99833.16;6249474;27;97381;-65
2021/12/15 02:10:19;;;;;;;;;77.00;59.00;;;;;9.37;57.00;99830.59;6195079;28;97753;-65
2021/12/15 02:13:33;;;;;;;;;78.40;61.40;;;;;9.46;56.62;99842.91;6214152;27;97204;-65
2021/12/15 02:16:36;;;;;;;;;78.75;57.75;;;;;9.39;57.01;99842.81;6212309;28;97550;-65
2021/12/15 02:19:41;;;;;;;;;73.80;57.40;;;;;9.44;57.06;99834.16;6238053;27;96745;-65
2021/12/15 02:22:46;;;;;;;;;77.33;58.00;;;;;9.49;56.93;99846.03;6219618;27;97972;-65
2021/12/15 02:25:51;;;;;;;;;72.75;54.00;;;;;9.48;56.87;99843.56;6192580;28;99161;-65
2021/12/15 02:28:56;;;;;;;;;75.00;54.40;;;;;9.48;57.02;99844.34;6215382;28;98382;-67
2021/12/15 02:32:10;;;;;;;;;74.60;57.40;;;;;9.54;56.79;99846.28;6230736;28;97180;-65
2021/12/15 02:38:40;;;;;;;;;76.00;56.60;;;;;9.54;56.80;99862.44;6238928;27;97486;-65
2021/12/15 02:41:45;;;;;;;;;78.00;59.00;;;;;9.60;56.84;99860.84;6227286;28;98527;-65
2021/12/15 02:44:49;;;;;;;;;73.00;57.00;;;;;9.62;56.57;99856.13;6221145;27;97137;-65
2021/12/15 02:47:53;;;;;;;;;74.75;57.00;;;;;9.58;56.69;99852.94;6235213;28;99440;-65
2021/12/15 02:50:57;;;;;;;;;75.00;56.50;;;;;9.64;56.63;99850.53;6238208;27;96890;-65
2021/12/15 02:54:03;;;;;;;;;72.00;54.20;;;;;9.47;56.57;99839.19;6228418;27;98390;-65
2021/12/15 02:57:11;;;;;;;;;75.00;53.80;;;;;9.73;56.51;99863.66;6237704;28;97909;-65
2021/12/15 03:00:19;;;;;;;;;73.60;57.00;;;;;9.81;56.25;99881.56;6236514;28;97941;-65
2021/12/15 03:04:09;;;;;;;;;73.00;55.00;;;;;9.81;56.31;99879.72;6222179;28;97268;-65
2021/12/15 03:07:13;;;;;;;;;71.60;52.60;;;;;9.71;56.52;99879.19;6235027;28;97055;-66
2021/12/15 03:16:53;;;;;;;;;68.60;51.00;;;;;9.78;56.44;99892.72;6235261;28;97682;-65
2021/12/15 03:19:56;;;;;;;;;72.60;53.00;;;;;9.76;56.50;99892.91;6235515;28;98379;-65
2021/12/15 03:22:59;;;;;;;;;72.00;52.00;;;;;9.81;56.47;99895.88;6213609;27;97733;-66
2021/12/15 03:26:05;;;;;;;;;67.00;51.00;;;;;9.79;56.31;99881.75;6236515;28;97732;-66
2021/12/15 03:36:02;;;;;;;;;70.60;51.80;;;;;9.74;56.50;99888.75;6236818;28;96893;-65
2021/12/15 03:39:08;;;;;;;;;70.20;52.20;;;;;9.78;56.39;99901.63;6235456;28;96742;-65
2021/12/15 03:42:17;;;;;;;;;71.80;52.20;;;;;9.78;56.54;99887.31;6222408;28;97730;-65
2021/12/15 03:45:24;;;;;;;;;73.25;52.00;;;;;9.75;56.51;99893.94;6234522;28;97043;-65
2021/12/15 03:48:31;;;;;;;;;71.00;51.00;;;;;9.71;56.50;99887.28;6238203;27;96917;-66
2021/12/15 03:51:35;;;;;;;;;72.00;52.00;;;;;9.71;56.48;99900.75;6230425;28;96795;-65
2021/12/15 03:54:38;;;;;;;;;71.67;52.00;;;;;9.74;56.53;99915.66;6223959;28;96996;-65
2021/12/15 03:57:43;;;;;;;;;74.00;53.00;;;;;9.78;56.22;99907.00;6234773;28;97825;-65
2021/12/15 04:00:51;;;;;;;;;73.50;55.50;;;;;9.85;56.13;99909.78;6236526;28;98559;-66
2021/12/15 04:03:56;;;;;;;;;71.20;53.00;;;;;9.92;56.11;99913.38;6225719;28;97412;-66
2021/12/15 04:06:59;;;;;;;;;75.00;55.00;;;;;9.95;55.75;99911.13;6237399;27;97351;-65
2021/12/15 04:10:04;;;;;;;;;75.00;56.00;;;;;9.95;55.82;99915.69;6237786;28;98558;-66
2021/12/15 04:13:12;;;;;;;;;74.25;58.25;;;;;9.97;55.72;99910.91;6224539;27;98564;-66
2021/12/15 04:16:39;;;;;;;;;73.00;55.00;;;;;9.99;55.65;99920.50;6237950;28;97184;-66
2021/12/15 04:19:40;;;;;;;;;72.80;52.00;;;;;10.06;55.68;99917.03;6210939;28;97494;-65
2021/12/15 04:22:44;;;;;;;;;73.00;55.00;;;;;10.09;55.45;99927.41;6208717;28;97025;-66
2021/12/15 04:25:50;;;;;;;;;71.60;53.00;;;;;10.03;55.56;99912.84;6207683;28;97170;-65
2021/12/15 04:28:55;;;;;;;;;74.40;54.40;;;;;10.11;55.48;99925.38;6209820;28;96969;-66
2021/12/15 04:32:03;;;;;;;;;70.00;52.00;;;;;10.11;55.44;99930.75;6217320;27;96455;-66
2021/12/15 04:35:08;;;;;;;;;74.20;53.40;;;;;10.09;55.44;99927.41;6228816;27;97675;-65
2021/12/15 04:38:12;;;;;;;;;73.25;54.75;;;;;10.08;55.60;99929.28;6231004;27;96805;-66
2021/12/15 04:41:17;;;;;;;;;69.80;51.80;;;;;10.11;55.45;99942.38;6231783;27;97687;-65
2021/12/15 04:44:40;;;;;;;;;70.50;52.50;;;;;10.14;55.48;99944.69;6214326;28;97817;-65
2021/12/15 04:47:44;;;;;;;;;71.25;53.00;;;;;10.06;55.28;99914.34;6236575;28;96718;-66
2021/12/15 04:50:48;;;;;;;;;72.80;55.00;;;;;10.16;55.27;99942.66;6238882;28;96815;-65
2021/12/15 04:53:52;;;;;;;;;74.40;53.00;;;;;10.09;55.10;99933.63;6217290;27;98096;-66
2021/12/15 04:56:56;;;;;;;;;70.60;52.40;;;;;10.12;55.35;99941.31;6223600;28;96692;-65
2021/12/15 05:00:01;;;;;;;;;69.75;53.00;;;;;10.10;55.51;99942.56;6237441;28;97160;-65
2021/12/15 05:03:06;;;;;;;;;73.00;53.00;;;;;10.10;55.43;99948.78;6217493;28;97042;-65
2021/12/15 05:06:10;;;;;;;;;72.40;53.00;;;;;9.98;55.83;99942.22;6232263;27;97466;-66
2021/12/15 05:09:14;;;;;;;;;69.60;52.80;;;;;9.94;55.81;99940.94;6236666;28;97131;-66
2021/12/15 05:12:18;;;;;;;;;71.60;52.00;;;;;9.98;55.92;99944.94;6224064;28;98684;-66
2021/12/15 05:15:24;;;;;;;;;69.50;51.25;;;;;9.91;56.02;99947.56;6250025;27;97527;-66
2021/12/15 05:18:27;;;;;;;;;67.00;49.40;;;;;9.91;56.19;99949.44;6236711;28;97722;-66
2021/12/15 05:21:31;;;;;;;;;70.80;53.20;;;;;9.96;56.04;99939.75;6228994;28;96529;-65
2021/12/15 05:24:35;;;;;;;;;67.20;51.00;;;;;9.90;56.14;99956.66;6233015;27;97099;-66
2021/12/15 05:27:40;;;;;;;;;69.60;52.00;;;;;9.91;56.26;99950.25;6237914;28;97446;-65
2021/12/15 05:30:44;;;;;;;;;71.00;50.50;;;;;9.89;56.56;99954.16;6240429;28;97438;-65
2021/12/15 05:33:48;;;;;;;;;70.25;51.00;;;;;9.95;56.39;99956.09;6210605;28;97053;-66
2021/12/15 05:36:52;;;;;;;;;70.00;51.00;;;;;9.97;56.23;99957.56;6230228;28;97263;-66
2021/12/15 05:39:56;;;;;;;;;68.80;50.80;;;;;9.97;56.30;99954.03;6242463;28;96730;-66
2021/12/15 05:43:00;;;;;;;;;68.60;50.60;;;;;9.98;56.22;99939.53;6227931;27;97306;-66
2021/12/15 05:46:05;;;;;;;;;68.40;48.60;;;;;10.01;56.15;99944.56;6269997;27;96744;-66
2021/12/15 05:49:08;;;;;;;;;64.50;50.00;;;;;9.99;56.29;99960.91;6232278;28;98262;-65
2021/12/15 05:52:12;;;;;;;;;65.00;50.00;;;;;10.00;56.33;99943.72;6215495;28;99780;-66
2021/12/15 05:55:16;;;;;;;;;65.00;48.75;;;;;9.98;56.35;99959.22;6232200;27;96869;-65
2021/12/15 05:58:20;;;;;;;;;65.60;48.40;;;;;9.99;56.44;99955.53;6246431;27;98171;-66
2021/12/15 06:01:26;;;;;;;;;63.60;48.00;;;;;10.12;56.20;99962.03;6232404;27;96954;-68
2021/12/15 06:04:30;;;;;;;;;63.00;47.25;;;;;10.06;55.98;99952.91;6227274;28;96888;-67
2021/12/15 06:07:33;;;;;;;;;65.50;46.75;;;;;10.14;56.01;99952.75;6240405;27;99526;-66
2021/12/15 06:10:39;;;;;;;;;65.40;48.20;;;;;10.16;56.11;99958.84;6243320;27;98096;-65
2021/12/15 06:13:47;;;;;;;;;62.40;47.40;;;;;10.19;55.80;99965.69;6238387;27;97217;-66
2021/12/15 06:16:54;;;;;;;;;63.00;47.00;;;;;10.24;55.78;99977.56;6239715;27;97008;-66
2021/12/15 06:19:58;;;;;;;;;63.40;48.40;;;;;10.23;55.82;99978.56;6241157;27;97476;-66
2021/12/15 06:23:09;;;;;;;;;60.00;46.00;;;;;10.24;55.63;99979.41;6230758;27;98444;-66
2021/12/15 06:26:12;;;;;;;;;63.00;48.00;;;;;10.23;55.76;99983.97;6237358;28;99619;-66
2021/12/15 06:29:15;;;;;;;;;62.00;48.00;;;;;10.19;55.88;99996.16;6236725;28;96915;-65
2021/12/15 06:32:21;;;;;;;;;63.60;46.60;;;;;10.16;55.88;99995.72;6231903;27;97015;-65
2021/12/15 06:35:25;;;;;;;;;65.80;48.20;;;;;10.23;55.85;99986.66;6226600;28;98744;-66
2021/12/15 06:38:33;;;;;;;;;67.60;49.20;;;;;10.21;55.78;99993.28;6237500;27;96605;-65
2021/12/15 06:41:37;;;;;;;;;63.00;48.00;;;;;10.13;56.13;99999.59;6238733;27;96871;-67
2021/12/15 06:44:41;;;;;;;;;65.75;48.25;;;;;10.22;55.59;99982.28;6235921;27;98592;-66
2021/12/15 06:58:15;;;;;;;;;65.40;48.40;;;;;10.43;55.29;100011.13;6237426;27;96784;-69
2021/12/15 07:01:18;;;;;;;;;65.25;48.50;;;;;10.41;55.22;100011.28;6233769;27;98032;-67
2021/12/15 07:04:24;;;;;;;;;64.50;48.50;;;;;10.50;55.00;100022.81;6230356;27;97449;-68
2021/12/15 07:07:30;;;;;;;;;68.40;50.40;;;;;10.34;55.20;100018.50;6219224;28;98416;-67
2021/12/15 07:10:38;;;;;;;;;65.60;50.00;;;;;10.38;55.16;100027.88;6236792;28;97420;-67
2021/12/15 07:13:41;;;;;;;;;67.00;51.00;;;;;10.38;55.11;100027.88;6226401;27;98136;-67
2021/12/15 07:16:47;;;;;;;;;65.00;50.00;;;;;10.31;55.42;100024.25;6234392;28;96694;-66
2021/12/15 07:20:17;;;;;;;;;64.60;49.40;;;;;10.34;55.16;100029.28;6241563;27;98418;-64
2021/12/15 07:23:24;;;;;;;;;67.00;50.00;;;;;10.38;55.10;100035.97;6217095;27;100077;-64
2021/12/15 07:26:29;;;;;;;;;67.40;51.00;;;;;10.35;55.25;100030.13;6235108;28;98245;-66
2021/12/15 07:29:36;;;;;;;;;67.40;51.00;;;;;10.37;55.18;100038.84;6234123;28;97590;-64
2021/12/15 07:32:39;;;;;;;;;70.40;52.60;;;;;10.30;55.25;100025.31;6225463;27;96956;-65
2021/12/15 07:35:44;;;;;;;;;68.60;50.20;;;;;10.33;55.13;100046.47;6238562;28;97195;-65
2021/12/15 07:38:47;;;;;;;;;68.40;51.00;;;;;10.25;55.31;100049.31;6235212;28;97396;-67
2021/12/15 07:41:53;;;;;;;;;67.40;51.00;;;;;10.31;55.30;100048.53;6229424;27;99598;-64
2021/12/15 07:44:56;;;;;;;;;68.00;50.50;;;;;10.32;55.36;100058.28;6230036;28;96797;-64
2021/12/15 07:48:02;;;;;;;;;65.25;49.25;;;;;10.35;55.34;100049.84;6237796;27;97675;-67
2021/12/15 07:51:09;;;;;;;;;67.25;51.75;;;;;10.36;55.18;100062.25;6228604;27;97485;-66
2021/12/15 07:54:14;;;;;;;;;66.60;49.40;;;;;10.25;55.41;100065.47;6224688;28;98500;-64
2021/12/15 07:57:19;;;;;;;;;67.00;51.00;;;;;10.26;55.42;100067.13;6236582;28;96559;-66
2021/12/15 08:00:24;;;;;;;;;66.40;50.00;;;;;10.23;55.70;100074.78;6237529;27;97619;-64
2021/12/15 08:03:28;;;;;;;;;68.60;51.00;;;;;10.26;55.55;100090.59;6226522;27;97137;-66
2021/12/15 08:06:33;;;;;;;;;68.20;51.20;;;;;10.29;55.68;100088.31;6236887;27;96496;-66
2021/12/15 08:09:39;;;;;;;;;67.00;50.20;;;;;10.40;55.30;100089.69;6236600;28;97239;-64
2021/12/15 08:12:45;;;;;;;;;70.80;51.40;;;;;10.43;55.24;100089.28;6219150;27;98752;-68
2021/12/15 08:15:49;;;;;;;;;68.00;51.40;;;;;10.46;55.19;100086.22;6235693;27;97450;-67
2021/12/15 08:18:52;;;;;;;;;68.00;50.60;;;;;10.50;55.24;100089.38;6237049;27;96962;-66
2021/12/15 08:21:57;;;;;;;;;67.60;51.60;;;;;10.61;55.06;100089.69;6231422;27;97696;-67
2021/12/15 08:25:00;;;;;;;;;70.20;51.40;;;;;10.68;54.86;100092.44;6269652;27;97093;-65
2021/12/15 08:28:05;;;;;;;;;69.50;53.00;;;;;10.79;54.74;100097.34;6240941;28;97719;-66
2021/12/15 08:31:08;;;;;;;;;69.00;51.00;;;;;10.91;54.56;100087.69;6255000;27;97382;-67
2021/12/15 08:34:12;;;;;;;;;65.00;49.60;;;;;10.90;54.53;100088.69;6218876;27;97002;-64
2021/12/15 08:37:17;;;;;;;;;66.75;50.75;;;;;10.87;54.51;100094.50;6235718;28;99037;-64
2021/12/15 08:40:22;;;;;;;;;67.60;51.00;;;;;10.87;54.69;100089.09;6237262;28;96930;-65
2021/12/15 08:43:28;;;;;;;;;69.25;50.75;;;;;10.84;54.88;100090.34;6220218;28;99153;-65
2021/12/15 08:46:37;;;;;;;;;68.80;51.00;;;;;10.96;54.75;100087.09;6235082;28;97068;-67
2021/12/15 08:49:40;;;;;;;;;67.00;50.00;;;;;11.02;54.73;100094.41;6239178;28;97365;-67
2021/12/15 08:52:45;;;;;;;;;67.80;50.20;;;;;11.01;54.82;100106.22;6216233;28;96823;-65
2021/12/15 08:55:50;;;;;;;;;67.75;50.00;;;;;11.01;54.42;100101.66;6231280;27;97548;-65
2021/12/15 08:58:54;;;;;;;;;67.60;51.00;;;;;11.09;54.46;100108.81;6238847;28;97399;-64
2021/12/15 09:01:58;;;;;;;;;67.60;51.00;;;;;11.20;54.28;100114.50;6227577;27;97894;-66
2021/12/15 09:05:01;;;;;;;;;67.20;50.80;;;;;11.27;53.99;100114.56;6211540;28;97614;-66
2021/12/15 09:08:06;;;;;;;;;69.25;50.50;;;;;11.28;53.95;100114.38;6244374;27;97636;-67
2021/12/15 09:11:14;;;;;;;;;67.80;51.20;;;;;11.35;53.50;100116.25;6243105;27;97238;-65
2021/12/15 09:14:18;;;;;;;;;70.20;50.60;;;;;11.39;53.48;100114.81;6215964;27;97925;-65
2021/12/15 09:17:21;;;;;;;;;67.00;50.75;;;;;11.22;53.13;100090.84;6215537;28;97032;-65
2021/12/15 09:20:28;;;;;;;;;64.20;48.60;;;;;11.47;53.22;100115.53;6220399;27;97088;-65
2021/12/15 09:23:33;;;;;;;;;65.00;49.00;;;;;11.38;53.41;100111.31;6232992;27;98515;-66
2021/12/15 09:26:37;;;;;;;;;63.60;47.80;;;;;11.34;53.42;100112.72;6239569;27;97405;-68
2021/12/15 09:29:41;;;;;;;;;64.40;47.80;;;;;11.43;53.52;100114.25;6222793;27;97139;-65
2021/12/15 09:32:45;;;;;;;;;60.75;45.00;;;;;11.46;53.06;100110.31;6229528;27;97515;-68
2021/12/15 09:35:49;;;;;;;;;65.00;49.00;;;;;11.46;53.15;100118.41;6236069;27;97418;-65
2021/12/15 09:38:59;;;;;;;;;66.25;49.00;;;;;11.33;53.43;100110.25;6228058;27;96850;-67
2021/12/15 09:42:03;;;;;;;;;65.40;48.40;;;;;11.39;53.33;100106.72;6228630;27;97786;-69
2021/12/15 09:45:22;;;;;;;;;65.40;47.40;;;;;11.43;53.35;100097.22;6239312;27;96797;-67
2021/12/15 10:02:03;;;;;;;;;64.75;48.00;;;;;11.25;53.73;100087.75;6231946;27;98049;-66
2021/12/15 10:05:24;;;;;;;;;62.00;46.20;;;;;11.13;53.96;100086.63;6235551;27;98615;-66
2021/12/15 10:12:17;;;;;;;;;61.40;47.60;;;;;11.10;53.86;100094.25;6206152;28;99101;-67
2021/12/15 10:18:46;;;;;;;;;61.00;45.00;;;;;11.03;54.26;100091.53;6237174;28;97222;-67
2021/12/15 10:22:08;;;;;;;;;62.00;45.20;;;;;10.93;54.65;100091.03;6243884;27;98169;-65
2021/12/15 10:25:17;;;;;;;;;59.60;45.00;;;;;10.99;54.56;100090.25;6239044;27;98203;-65
2021/12/15 10:28:24;;;;;;;;;60.20;46.00;;;;;11.03;54.35;100080.72;6251112;27;97346;-66
2021/12/15 10:31:28;;;;;;;;;62.00;46.00;;;;;11.03;54.36;100083.44;6232239;27;96771;-66
2021/12/15 10:34:32;;;;;;;;;62.00;46.40;;;;;10.98;54.41;100080.47;6234676;27;99489;-66
2021/12/15 10:37:40;;;;;;;;;65.00;48.00;;;;;10.96;54.38;100082.53;6251033;27;99458;-67
2021/12/15 10:40:45;;;;;;;;;58.80;46.00;;;;;11.07;54.62;100087.41;6241704;27;96754;-65
2021/12/15 10:43:54;;;;;;;;;67.00;49.25;;;;;11.19;54.16;100087.72;6228619;27;97517;-67
2021/12/15 10:47:04;;;;;;;;;63.80;49.20;;;;;11.19;54.19;100074.22;6248780;27;97591;-66
2021/12/15 10:50:14;;;;;;;;;66.20;50.00;;;;;11.17;54.26;100066.31;6269410;27;96710;-66
2021/12/15 10:53:33;;;;;;;;;67.80;50.00;;;;;11.20;54.27;100065.06;6221576;27;97188;-67
2021/12/15 10:56:39;;;;;;;;;66.25;50.50;;;;;11.12;54.63;100059.81;6258554;27;96777;-66
2021/12/15 10:59:48;;;;;;;;;65.40;50.00;;;;;11.06;54.76;100053.34;6258602;27;97465;-67
2021/12/15 11:03:16;;;;;;;;;68.20;50.20;;;;;11.02;54.92;100043.97;6218479;27;99082;-66
2021/12/15 11:06:22;;;;;;;;;64.00;49.00;;;;;11.18;54.96;100041.00;6240636;27;97545;-66
2021/12/15 11:09:25;;;;;;;;;64.00;50.00;;;;;11.24;54.95;100053.66;6242885;27;96899;-67
2021/12/15 11:12:31;;;;;;;;;66.40;50.00;;;;;11.30;54.91;100060.16;6220675;27;97881;-67
2021/12/15 11:15:40;;;;;;;;;65.60;50.00;;;;;11.34;54.84;100055.22;6242595;27;96806;-67
2021/12/15 11:18:44;;;;;;;;;67.60;50.20;;;;;11.41;54.60;100059.59;6236229;27;96718;-64
2021/12/15 11:21:47;;;;;;;;;66.50;50.00;;;;;11.45;54.62;100052.78;6211502;27;98306;-68
2021/12/15 11:24:50;;;;;;;;;66.00;48.20;;;;;11.37;54.84;100044.84;6228451;27;97260;-66
2021/12/15 11:27:58;;;;;;;;;65.40;49.60;;;;;11.36;54.66;100045.88;6249626;27;97152;-67
2021/12/15 11:31:07;;;;;;;;;68.75;50.00;;;;;11.45;54.70;100051.94;6230131;27;97134;-66
2021/12/15 11:34:10;;;;;;;;;67.20;50.60;;;;;11.48;54.48;100041.59;6228814;27;97537;-66
2021/12/15 11:37:14;;;;;;;;;67.00;49.00;;;;;11.48;54.57;100025.38;6237129;27;97394;-66
2021/12/15 11:40:24;;;;;;;;;68.40;50.00;;;;;11.62;54.33;100039.78;6242114;27;98573;-67
2021/12/15 11:43:30;;;;;;;;;67.50;49.00;;;;;11.56;54.31;100027.06;6219981;27;97745;-66
2021/12/15 11:46:39;;;;;;;;;67.00;49.00;;;;;11.50;54.80;100027.88;6246472;27;98240;-67
2021/12/15 11:49:44;;;;;;;;;64.00;48.00;;;;;11.50;54.66;100033.25;6244127;27;97536;-67
2021/12/15 11:52:50;;;;;;;;;61.40;47.60;;;;;11.52;54.81;100013.16;6235044;27;98324;-67
2021/12/15 11:55:53;;;;;;;;;64.00;48.00;;;;;11.50;54.69;100012.50;6227360;27;99672;-67
2021/12/15 11:59:15;;;;;;;;;66.50;48.00;;;;;11.57;54.61;100026.03;6254625;27;96712;-66
2021/12/15 12:02:24;;;;;;;;;62.00;46.00;;;;;11.49;54.54;100018.94;6224936;28;96664;-66
2021/12/15 12:05:30;;;;;;;;;63.00;48.00;;;;;11.71;54.51;100033.16;6240001;27;97757;-65
2021/12/15 12:08:33;;;;;;;;;63.60;46.00;;;;;11.69;54.41;100037.94;6238384;27;96722;-67
2021/12/15 12:11:40;;;;;;;;;60.00;44.20;;;;;11.65;54.53;100034.81;6228186;27;97536;-67
2021/12/15 12:14:49;;;;;;;;;61.00;45.40;;;;;11.59;54.59;100040.16;6230880;27;97476;-68
2021/12/15 12:17:57;;;;;;;;;58.00;45.00;;;;;11.50;54.87;100039.50;6236254;27;99712;-66
2021/12/15 12:21:09;;;;;;;;;63.60;47.60;;;;;11.59;54.61;100038.31;6238095;27;96978;-68
2021/12/15 12:24:17;;;;;;;;;64.00;45.60;;;;;11.65;54.53;100036.66;6236809;27;98283;-69
2021/12/15 12:27:22;;;;;;;;;59.40;46.20;;;;;11.68;54.59;100018.19;6239241;27;97426;-66
2021/12/15 12:30:28;;;;;;;;;62.40;46.40;;;;;11.74;54.47;100030.09;6241338;27;96875;-67
2021/12/15 12:33:34;;;;;;;;;62.00;46.00;;;;;11.73;54.54;100040.06;6230436;27;98249;-66
2021/12/15 12:36:37;;;;;;;;;59.40;44.00;;;;;11.71;54.56;100033.16;6241431;27;97438;-67
2021/12/15 12:39:43;;;;;;;;;61.00;44.60;;;;;11.67;54.50;100030.03;6237749;27;96910;-66
2021/12/15 12:42:47;;;;;;;;;59.00;45.00;;;;;11.70;54.69;100024.22;6219755;27;97185;-66
2021/12/15 12:46:08;;;;;;;;;59.50;44.00;;;;;11.79;54.46;100024.91;6232963;28;97140;-65
2021/12/15 12:49:36;;;;;;;;;57.60;44.60;;;;;11.75;54.29;100025.53;6213031;27;96705;-66
2021/12/15 12:59:33;;;;;;;;;56.00;43.00;;;;;11.58;55.25;100004.22;6240773;27;97509;-65
2021/12/15 13:02:47;;;;;;;;;55.75;43.25;;;;;11.61;55.18;100008.41;6232051;27;96947;-65
2021/12/15 13:05:54;;;;;;;;;53.00;41.60;;;;;11.62;55.03;100010.06;6239452;27;97628;-66
2021/12/15 13:09:04;;;;;;;;;55.00;41.00;;;;;11.71;54.88;99998.88;6242010;27;96712;-67
2021/12/15 13:12:20;;;;;;;;;54.20;41.20;;;;;11.61;55.27;100003.00;6235527;27;98242;-65
2021/12/15 13:15:34;;;;;;;;;52.80;41.80;;;;;11.56;55.02;99998.19;6223042;27;99543;-66
2021/12/15 13:18:50;;;;;;;;;49.60;40.00;;;;;11.71;54.92;100014.25;6224433;28;97887;-65
2021/12/15 13:22:20;;;;;;;;;52.00;40.25;;;;;11.70;54.77;100015.28;6224902;27;96744;-66
2021/12/15 13:28:50;;;;;;;;;51.80;40.20;;;;;11.73;55.02;100019.50;6250283;27;97433;-67
2021/12/15 13:31:56;;;;;;;;;51.50;39.00;;;;;11.76;54.93;100016.38;6224468;27;97758;-66
2021/12/15 13:35:00;;;;;;;;;50.00;38.60;;;;;11.78;54.91;100025.13;6248660;27;97222;-67
2021/12/15 13:38:32;;;;;;;;;47.80;38.00;;;;;11.72;54.72;100002.44;6237919;27;97624;-66
2021/12/15 13:41:41;;;;;;;;;49.60;39.60;;;;;11.89;54.45;100040.75;6234286;27;97644;-66
2021/12/15 13:44:48;;;;;;;;;49.40;40.00;;;;;11.96;54.37;100039.75;6225487;27;97466;-67
2021/12/15 13:47:51;;;;;;;;;48.50;37.00;;;;;11.90;54.41;100042.41;6239518;27;96741;-67
2021/12/15 13:50:55;;;;;;;;;47.40;37.00;;;;;11.98;54.36;100047.63;6227928;27;97278;-67
2021/12/15 13:54:00;;;;;;;;;49.40;37.80;;;;;12.04;54.51;100063.06;6210385;27;97549;-67
2021/12/15 13:57:10;;;;;;;;;46.00;36.33;;;;;12.02;54.29;100057.03;6236647;27;97355;-67
2021/12/15 14:00:20;;;;;;;;;43.67;35.33;;;;;12.04;54.08;100063.06;6242111;27;97252;-66
2021/12/15 14:03:28;;;;;;;;;47.75;37.00;;;;;12.01;54.06;100061.59;6231824;27;98741;-65
2021/12/15 14:06:34;;;;;;;;;47.40;37.00;;;;;12.00;54.07;100064.50;6232408;27;96991;-66
2021/12/15 14:09:38;;;;;;;;;45.00;36.00;;;;;12.00;54.13;100067.19;6241159;27;97826;-64
2021/12/15 14:12:52;;;;;;;;;45.00;35.00;;;;;11.88;54.52;100060.69;6225834;27;97037;-64
2021/12/15 14:15:55;;;;;;;;;41.60;34.00;;;;;11.93;54.35;100066.31;6254683;27;99533;-65
2021/12/15 14:19:00;;;;;;;;;44.60;35.40;;;;;11.92;54.03;100060.13;6230677;27;98790;-64
2021/12/15 14:22:07;;;;;;;;;39.60;33.00;;;;;12.02;53.82;100074.06;6225100;27;96871;-65
2021/12/15 14:25:12;;;;;;;;;47.40;36.00;;;;;11.96;54.22;100065.94;6214895;27;98348;-65
2021/12/15 14:28:18;;;;;;;;;42.80;35.00;;;;;11.95;54.20;100072.38;6233656;27;97524;-66
2021/12/15 14:31:24;;;;;;;;;44.00;35.00;;;;;12.00;53.92;100067.19;6239950;27;96936;-66
2021/12/15 14:34:30;;;;;;;;;45.00;35.00;;;;;12.05;53.90;100076.38;6247746;27;97112;-66
2021/12/15 14:37:33;;;;;;;;;48.00;36.50;;;;;12.01;53.90;100066.19;6230019;27;100088;-67
2021/12/15 14:40:38;;;;;;;;;44.00;35.00;;;;;11.98;54.02;100072.81;6220986;27;97200;-67
2021/12/15 14:43:42;;;;;;;;;45.00;35.00;;;;;11.92;54.20;100068.22;6219763;27;97748;-66
2021/12/15 14:46:48;;;;;;;;;43.60;34.20;;;;;11.93;54.04;100074.44;6246283;27;96952;-68
2021/12/15 14:49:53;;;;;;;;;41.75;34.00;;;;;12.03;54.20;100075.72;6246177;27;97910;-65
2021/12/15 14:52:57;;;;;;;;;45.80;36.00;;;;;12.05;54.13;100083.66;6228651;27;99239;-66
2021/12/15 14:56:02;;;;;;;;;45.00;35.60;;;;;11.98;54.05;100066.56;6236709;27;97794;-66
2021/12/15 14:59:05;;;;;;;;;45.00;35.00;;;;;11.95;54.15;100069.69;6236372;27;96638;-64
2021/12/15 15:02:10;;;;;;;;;44.00;34.75;;;;;11.98;54.27;100078.22;6225991;27;98844;-64
2021/12/15 15:05:17;;;;;;;;;44.00;35.00;;;;;11.92;54.30;100080.91;6248335;27;97125;-65
2021/12/15 15:08:25;;;;;;;;;44.40;34.20;;;;;11.79;54.52;100070.00;6244740;27;97656;-65
2021/12/15 15:11:30;;;;;;;;;45.80;36.00;;;;;11.88;54.64;100093.97;6244942;27;97497;-64
2021/12/15 15:14:42;;;;;;;;;44.60;34.00;;;;;11.84;54.86;100087.28;6241665;27;97391;-65
2021/12/15 15:17:51;;;;;;;;;45.00;36.00;;;;;11.91;54.60;100093.56;6251792;27;97157;-64
2021/12/15 15:20:56;;;;;;;;;47.00;35.33;;;;;11.93;54.63;100099.59;6239340;27;97220;-64
2021/12/15 15:23:59;;;;;;;;;46.00;35.00;;;;;11.96;54.51;100101.09;6225267;27;97618;-63